Time;durP1;ratioP1;P1;durP2;ratioP2;P2;SDS_P1;SDS_P2;PMS_P1;PMS_P2;Temp;Humidity;BMP_temperature;BMP_pressure;BME280_temperature;BME280_humidity;BME280_pressure;Samples;Min_cycle;Max_cycle;Signal;HPM_P1;HPM_P2
2022/08/04 00:00:19;;;;;;;8.80;3.90;;;22.20;99.90;;;;;;5037814;28;20053;-66
2022/08/04 00:03:03;;;;;;;8.18;3.80;;;22.20;99.90;;;;;;5035872;28;20052;-66
2022/08/04 00:05:55;;;;;;;6.68;3.65;;;22.10;99.90;;;;;;5034718;28;20049;-66
2022/08/04 00:08:25;;;;;;;9.15;4.03;;;22.10;99.90;;;;;;5036209;28;20492;-66
2022/08/04 00:10:57;;;;;;;8.65;3.90;;;22.10;99.90;;;;;;5036422;28;20129;-66
2022/08/04 00:13:25;;;;;;;8.63;4.10;;;22.00;99.90;;;;;;5032294;28;20504;-67
2022/08/04 00:15:52;;;;;;;8.45;4.15;;;22.00;99.90;;;;;;5039131;28;20383;-67
2022/08/04 00:18:28;;;;;;;8.80;4.22;;;22.00;99.90;;;;;;5035884;28;20143;-66
2022/08/04 00:21:03;;;;;;;9.02;4.32;;;22.00;99.90;;;;;;5038824;28;20120;-66
2022/08/04 00:23:32;;;;;;;9.30;4.90;;;21.90;99.90;;;;;;5034024;28;20108;-66
2022/08/04 00:25:57;;;;;;;7.03;4.15;;;21.90;99.90;;;;;;5036576;28;20772;-66
2022/08/04 00:28:24;;;;;;;9.98;4.60;;;21.90;99.90;;;;;;5037127;28;20037;-66
2022/08/04 00:30:50;;;;;;;9.57;4.60;;;21.90;99.90;;;;;;5038924;28;20037;-66
2022/08/04 00:33:20;;;;;;;11.63;4.32;;;21.90;99.90;;;;;;5042245;28;20072;-66
2022/08/04 00:35:49;;;;;;;11.13;4.65;;;21.80;99.90;;;;;;5036148;28;20081;-66
2022/08/04 00:38:16;;;;;;;9.15;4.63;;;21.80;99.90;;;;;;5040545;28;20180;-66
2022/08/04 00:41:01;;;;;;;11.20;4.30;;;21.80;99.90;;;;;;5038950;28;20048;-65
2022/08/04 00:43:43;;;;;;;9.80;4.53;;;21.80;99.90;;;;;;5036143;28;20033;-65
2022/08/04 00:46:21;;;;;;;9.68;4.55;;;21.70;99.90;;;;;;5042611;28;20464;-65
2022/08/04 00:49:02;;;;;;;10.00;4.70;;;21.70;99.90;;;;;;5039876;28;20053;-65
2022/08/04 00:51:48;;;;;;;10.63;4.78;;;21.70;99.90;;;;;;5046735;28;20117;-65
2022/08/04 00:54:35;;;;;;;9.50;4.90;;;21.70;99.90;;;;;;5035655;28;20434;-66
2022/08/04 00:57:28;;;;;;;9.93;5.20;;;21.70;99.90;;;;;;5041603;28;20437;-65
2022/08/04 01:00:00;;;;;;;10.13;5.07;;;21.70;99.90;;;;;;5036744;28;20169;-65
2022/08/04 01:02:49;;;;;;;7.88;4.80;;;21.60;99.90;;;;;;5037876;28;20056;-65
2022/08/04 01:05:33;;;;;;;10.57;4.95;;;21.60;99.90;;;;;;5037184;28;20068;-65
2022/08/04 01:08:45;;;;;;;11.95;5.15;;;21.60;99.90;;;;;;5035363;28;20128;-65
2022/08/04 01:11:26;;;;;;;10.73;4.68;;;21.50;99.90;;;;;;5039713;28;20061;-66
2022/08/04 01:14:00;;;;;;;12.93;5.13;;;21.50;99.90;;;;;;5044698;28;20040;-65
2022/08/04 01:16:26;;;;;;;11.77;4.72;;;21.50;99.90;;;;;;5041505;28;20033;-65
2022/08/04 01:18:59;;;;;;;9.70;5.10;;;21.50;99.90;;;;;;5045081;28;20059;-65
2022/08/04 01:21:27;;;;;;;10.55;4.68;;;21.40;99.90;;;;;;5034285;28;20041;-65
2022/08/04 01:24:29;;;;;;;11.07;5.53;;;21.40;99.90;;;;;;5035693;28;20136;-65
2022/08/04 01:27:02;;;;;;;8.43;5.07;;;21.40;99.90;;;;;;5038053;28;20033;-65
2022/08/04 01:29:36;;;;;;;11.82;4.90;;;21.40;99.90;;;;;;5033867;28;20129;-65
2022/08/04 01:32:22;;;;;;;10.70;5.40;;;21.30;99.90;;;;;;5040907;28;20037;-65
2022/08/04 01:34:55;;;;;;;10.15;5.90;;;21.30;99.90;;;;;;5034017;28;20518;-65
2022/08/04 01:37:38;;;;;;;9.95;5.72;;;21.30;99.90;;;;;;5036217;28;20488;-65
2022/08/04 01:40:06;;;;;;;10.13;5.72;;;21.30;99.90;;;;;;5035554;28;20125;-65
2022/08/04 01:42:35;;;;;;;10.85;6.10;;;21.20;99.90;;;;;;5032504;28;20064;-65
2022/08/04 01:45:06;;;;;;;12.30;5.95;;;21.20;99.90;;;;;;5038898;28;20054;-67
2022/08/04 01:47:35;;;;;;;11.98;5.90;;;21.20;99.90;;;;;;5039762;28;20048;-66
2022/08/04 01:50:09;;;;;;;10.93;6.15;;;21.20;99.90;;;;;;5036539;28;20037;-65
2022/08/04 01:52:36;;;;;;;14.80;5.60;;;21.10;99.90;;;;;;5036482;28;20064;-66
2022/08/04 01:55:05;;;;;;;12.55;5.90;;;21.10;99.90;;;;;;5039356;28;20143;-65
2022/08/04 01:57:33;;;;;;;12.45;6.25;;;21.00;99.90;;;;;;5039204;28;20036;-65
2022/08/04 01:59:59;;;;;;;10.85;6.43;;;21.00;99.90;;;;;;5042180;28;20508;-65
2022/08/04 02:02:25;;;;;;;12.35;6.60;;;21.00;99.90;;;;;;5039012;28;20037;-65
2022/08/04 02:04:51;;;;;;;13.82;6.60;;;21.00;99.90;;;;;;5034746;28;20063;-65
2022/08/04 02:07:46;;;;;;;12.85;6.75;;;21.00;99.90;;;;;;5039726;28;20064;-65
2022/08/04 02:10:21;;;;;;;10.98;6.57;;;20.90;99.90;;;;;;5038608;28;20046;-65
2022/08/04 02:12:58;;;;;;;13.13;6.43;;;20.90;99.90;;;;;;5042104;28;20098;-66
2022/08/04 02:15:57;;;;;;;9.95;6.80;;;20.90;99.90;;;;;;5041236;28;20049;-66
2022/08/04 02:18:30;;;;;;;13.73;7.55;;;20.80;99.90;;;;;;5043712;28;20037;-65
2022/08/04 02:21:01;;;;;;;12.52;8.02;;;20.80;99.90;;;;;;5035810;28;20037;-65
2022/08/04 02:23:39;;;;;;;14.60;8.18;;;20.80;99.90;;;;;;5043762;28;20037;-65
2022/08/04 02:26:12;;;;;;;11.85;8.05;;;20.80;99.90;;;;;;5030805;28;20053;-65
2022/08/04 02:29:11;;;;;;;13.50;8.27;;;20.70;99.90;;;;;;5037100;28;20046;-65
2022/08/04 02:31:56;;;;;;;11.60;8.02;;;20.70;99.90;;;;;;5045047;28;20099;-65
2022/08/04 02:34:29;;;;;;;13.93;7.97;;;20.70;99.90;;;;;;5037475;28;20044;-65
2022/08/04 02:36:56;;;;;;;14.27;7.85;;;20.60;99.90;;;;;;5046877;28;20048;-65
2022/08/04 02:39:22;;;;;;;10.50;7.43;;;20.60;99.90;;;;;;5033909;28;20041;-65
2022/08/04 02:41:49;;;;;;;14.13;8.20;;;20.60;99.90;;;;;;5043106;28;20392;-65
2022/08/04 02:44:21;;;;;;;13.68;8.63;;;20.60;99.90;;;;;;5037710;28;20048;-65
2022/08/04 02:46:49;;;;;;;10.93;7.68;;;20.60;99.90;;;;;;5032579;28;20041;-65
2022/08/04 02:49:17;;;;;;;12.55;7.78;;;20.50;99.90;;;;;;5034555;28;20056;-65
2022/08/04 02:51:46;;;;;;;11.63;8.05;;;20.50;99.90;;;;;;5037621;28;20072;-66
2022/08/04 02:54:15;;;;;;;12.38;7.47;;;20.50;99.90;;;;;;5038288;28;20037;-65
2022/08/04 02:56:44;;;;;;;13.65;7.72;;;20.50;99.90;;;;;;5038277;28;20117;-65
2022/08/04 02:59:11;;;;;;;13.00;7.57;;;20.50;99.90;;;;;;5041321;28;20560;-65
2022/08/04 03:01:39;;;;;;;11.23;7.57;;;20.50;99.90;;;;;;5043043;28;20160;-65
2022/08/04 03:04:25;;;;;;;12.93;7.70;;;20.50;99.90;;;;;;5029140;28;20068;-65
2022/08/04 03:07:08;;;;;;;11.77;6.68;;;20.50;99.90;;;;;;5043349;28;20459;-65
2022/08/04 03:09:58;;;;;;;11.45;6.32;;;20.50;99.90;;;;;;5033459;28;20041;-65
2022/08/04 03:12:45;;;;;;;10.25;6.43;;;20.40;99.90;;;;;;5036720;28;20068;-66
2022/08/04 03:15:23;;;;;;;11.88;6.47;;;20.40;99.90;;;;;;5032913;28;20627;-66
2022/08/04 03:18:32;;;;;;;10.95;6.28;;;20.40;99.90;;;;;;5033175;28;20041;-65
2022/08/04 03:20:57;;;;;;;11.07;6.45;;;20.40;99.90;;;;;;5035503;28;20037;-65
2022/08/04 03:23:29;;;;;;;10.77;6.40;;;20.30;99.90;;;;;;5041101;28;20055;-65
2022/08/04 03:26:19;;;;;;;12.05;6.88;;;20.30;99.90;;;;;;5032787;28;20164;-65
2022/08/04 03:28:54;;;;;;;10.23;7.15;;;20.30;99.90;;;;;;5037204;28;20135;-66
2022/08/04 03:31:19;;;;;;;11.85;7.15;;;20.30;99.90;;;;;;5047491;28;20159;-65
2022/08/04 03:34:13;;;;;;;13.30;8.50;;;20.20;99.90;;;;;;5033768;28;20072;-65
2022/08/04 03:37:23;;;;;;;15.48;9.45;;;20.20;99.90;;;;;;5034973;28;20053;-65
2022/08/04 03:40:14;;;;;;;15.95;10.80;;;20.20;99.90;;;;;;5035056;28;20049;-65
2022/08/04 03:42:45;;;;;;;15.82;11.10;;;20.20;99.90;;;;;;5037209;28;20053;-65
2022/08/04 03:45:37;;;;;;;16.95;11.70;;;20.20;99.90;;;;;;5041153;28;20156;-65
2022/08/04 03:48:24;;;;;;;19.05;12.13;;;20.20;99.90;;;;;;5037285;28;20472;-66
2022/08/04 03:54:28;;;;;;;16.77;11.25;;;20.20;99.90;;;;;;5032645;28;20083;-65
2022/08/04 03:57:21;;;;;;;16.08;10.57;;;20.20;99.90;;;;;;5042107;28;20041;-65
2022/08/04 04:00:07;;;;;;;14.82;10.27;;;20.20;99.90;;;;;;5033400;28;20057;-65
2022/08/04 04:02:48;;;;;;;17.45;10.50;;;20.10;99.90;;;;;;5038429;28;20228;-65
2022/08/04 04:05:33;;;;;;;14.18;8.93;;;20.10;99.90;;;;;;5028763;28;20084;-65
2022/08/04 04:08:16;;;;;;;14.32;7.68;;;20.10;99.90;;;;;;5036870;28;20420;-65
2022/08/04 04:11:06;;;;;;;16.95;9.50;;;20.10;99.90;;;;;;5036173;28;20059;-65
2022/08/04 04:14:09;;;;;;;14.65;9.45;;;20.10;99.90;;;;;;5039746;28;20056;-65
2022/08/04 04:17:16;;;;;;;15.10;9.35;;;20.10;99.90;;;;;;5029913;28;20129;-65
2022/08/04 04:20:20;;;;;;;13.55;8.93;;;20.10;99.90;;;;;;5037065;28;20139;-65
2022/08/04 04:23:04;;;;;;;14.52;8.93;;;20.10;99.90;;;;;;5037959;28;20450;-65
2022/08/04 04:26:10;;;;;;;13.40;9.37;;;20.10;99.90;;;;;;5041408;28;20048;-65
2022/08/04 04:28:57;;;;;;;16.33;10.00;;;20.10;99.90;;;;;;5036053;28;20037;-65
2022/08/04 04:31:40;;;;;;;13.82;8.60;;;20.10;99.90;;;;;;5056026;28;20045;-65
2022/08/04 04:34:41;;;;;;;11.13;8.02;;;20.10;99.90;;;;;;5042719;28;20052;-65
2022/08/04 04:37:47;;;;;;;13.45;9.05;;;20.10;99.90;;;;;;5035335;28;20056;-65
2022/08/04 04:40:33;;;;;;;12.50;8.25;;;20.20;99.90;;;;;;5001421;28;20459;-65
2022/08/04 04:43:44;;;;;;;13.55;9.18;;;20.20;99.90;;;;;;5038096;28;20432;-69
2022/08/04 04:46:19;;;;;;;15.25;9.65;;;20.20;99.90;;;;;;5043762;28;20130;-69
2022/08/04 04:49:13;;;;;;;12.93;9.63;;;20.30;99.90;;;;;;5045016;28;20053;-69
2022/08/04 04:51:57;;;;;;;17.05;9.93;;;20.40;99.90;;;;;;5045043;28;20777;-70
2022/08/04 04:54:26;;;;;;;15.13;10.90;;;20.40;99.90;;;;;;5041030;28;21188;-68
2022/08/04 04:57:02;;;;;;;14.48;9.77;;;20.40;99.90;;;;;;5045967;28;20051;-70
2022/08/04 04:59:33;;;;;;;14.45;9.90;;;20.50;99.90;;;;;;5040678;28;20083;-70
2022/08/04 05:02:29;;;;;;;13.55;9.50;;;20.60;99.90;;;;;;5038834;28;20545;-73
2022/08/04 05:05:19;;;;;;;14.52;9.77;;;20.70;99.90;;;;;;5046166;28;20574;-70
2022/08/04 05:08:06;;;;;;;13.02;8.65;;;20.80;99.90;;;;;;5040310;28;20045;-69
2022/08/04 05:10:56;;;;;;;12.95;8.10;;;20.90;99.90;;;;;;5043311;28;20099;-69
2022/08/04 05:13:32;;;;;;;12.35;7.45;;;21.00;99.90;;;;;;5043022;28;20045;-69
2022/08/04 05:16:39;;;;;;;10.52;7.03;;;21.00;99.90;;;;;;5034128;28;20136;-70
2022/08/04 05:19:32;;;;;;;13.30;7.80;;;21.20;99.90;;;;;;5034887;28;20064;-69
2022/08/04 05:21:58;;;;;;;13.95;7.35;;;21.20;99.90;;;;;;5035373;28;20080;-69
2022/08/04 05:24:26;;;;;;;11.88;7.72;;;21.30;99.90;;;;;;5048645;28;20073;-70
2022/08/04 05:26:55;;;;;;;9.98;6.95;;;21.50;99.90;;;;;;5040710;28;20055;-69
2022/08/04 05:29:37;;;;;;;12.48;7.28;;;21.60;99.90;;;;;;5032216;28;20044;-71
2022/08/04 05:32:11;;;;;;;13.32;7.57;;;21.60;99.90;;;;;;5033397;28;20139;-72
2022/08/04 05:34:42;;;;;;;11.32;6.95;;;21.70;99.90;;;;;;5037855;28;20048;-72
2022/08/04 05:37:10;;;;;;;11.48;7.38;;;21.80;99.90;;;;;;5033237;28;20141;-69
2022/08/04 05:39:44;;;;;;;14.63;7.28;;;21.80;99.90;;;;;;5034560;28;20615;-72
2022/08/04 05:42:10;;;;;;;11.15;6.93;;;22.00;99.90;;;;;;5036392;28;20413;-69
2022/08/04 05:44:37;;;;;;;12.02;7.43;;;22.00;99.90;;;;;;5038591;28;20119;-71
2022/08/04 05:47:05;;;;;;;12.55;7.85;;;22.00;99.90;;;;;;5038675;28;20480;-69
2022/08/04 05:49:32;;;;;;;13.18;9.38;;;22.10;99.90;;;;;;5034795;28;21708;-69
2022/08/04 05:52:02;;;;;;;14.73;10.23;;;22.20;99.90;;;;;;5035524;28;20061;-69
2022/08/04 05:54:30;;;;;;;13.88;10.07;;;22.30;99.90;;;;;;5036543;28;20078;-69
2022/08/04 05:56:57;;;;;;;15.38;10.15;;;22.40;99.90;;;;;;5036358;28;20060;-69
2022/08/04 05:59:27;;;;;;;12.40;8.25;;;22.60;99.90;;;;;;5035579;28;20171;-70
2022/08/04 06:01:55;;;;;;;12.95;7.80;;;22.70;99.90;;;;;;5036192;28;20076;-70
2022/08/04 06:04:25;;;;;;;12.35;7.78;;;22.90;99.90;;;;;;5033709;28;20148;-69
2022/08/04 06:06:52;;;;;;;10.50;7.07;;;23.00;99.90;;;;;;5032984;28;20045;-69
2022/08/04 06:09:18;;;;;;;10.73;7.20;;;23.10;99.90;;;;;;5039389;28;20043;-70
2022/08/04 06:11:45;;;;;;;11.80;8.30;;;23.20;99.90;;;;;;5039075;28;20045;-70
2022/08/04 06:14:13;;;;;;;11.48;7.32;;;23.30;99.90;;;;;;5045551;28;20041;-71
2022/08/04 06:16:41;;;;;;;11.05;6.85;;;23.40;99.90;;;;;;5047530;28;20091;-70
2022/08/04 06:19:10;;;;;;;13.02;7.70;;;23.50;99.90;;;;;;5044808;28;20037;-69
2022/08/04 06:21:44;;;;;;;11.27;7.18;;;23.70;99.90;;;;;;5044225;28;20056;-69
2022/08/04 06:24:14;;;;;;;14.05;7.97;;;23.80;99.90;;;;;;5035739;28;20536;-70
2022/08/04 06:26:42;;;;;;;12.07;6.25;;;23.90;99.90;;;;;;5040085;28;20044;-69
2022/08/04 06:29:16;;;;;;;10.13;6.07;;;24.10;99.90;;;;;;5043156;28;20045;-70
2022/08/04 06:31:45;;;;;;;9.50;5.70;;;24.30;99.90;;;;;;5053403;28;20048;-70
2022/08/04 06:34:13;;;;;;;8.65;6.28;;;24.40;99.90;;;;;;5029399;28;20056;-70
2022/08/04 06:36:41;;;;;;;11.85;6.95;;;24.70;99.90;;;;;;5030575;28;20045;-70
2022/08/04 06:39:08;;;;;;;11.40;6.80;;;24.80;99.90;;;;;;5037139;28;20377;-70
2022/08/04 06:41:34;;;;;;;13.27;6.97;;;25.00;99.90;;;;;;5035979;28;21835;-70
2022/08/04 06:44:06;;;;;;;10.85;6.28;;;25.10;99.90;;;;;;5032631;28;20052;-70
2022/08/04 06:46:35;;;;;;;9.98;6.30;;;25.30;99.90;;;;;;5028881;28;20063;-70
2022/08/04 06:49:03;;;;;;;10.95;6.68;;;25.50;99.90;;;;;;5036815;28;20041;-70
2022/08/04 06:51:30;;;;;;;10.90;6.47;;;25.70;99.90;;;;;;5028391;28;20065;-70
2022/08/04 06:53:56;;;;;;;10.40;5.80;;;25.90;99.90;;;;;;5029412;28;20121;-69
2022/08/04 06:56:23;;;;;;;14.10;6.45;;;26.00;99.90;;;;;;5037579;28;20041;-70
2022/08/04 06:58:50;;;;;;;9.40;5.28;;;26.00;99.90;;;;;;5042849;28;20045;-70
2022/08/04 07:01:19;;;;;;;9.45;4.55;;;26.10;99.90;;;;;;5036235;28;20038;-70
2022/08/04 07:03:45;;;;;;;9.18;4.30;;;26.20;99.90;;;;;;5041696;28;20069;-70
2022/08/04 07:06:12;;;;;;;7.63;4.50;;;26.30;99.90;;;;;;5045971;28;20102;-70
2022/08/04 07:08:38;;;;;;;11.10;4.93;;;26.40;99.90;;;;;;5034607;28;20041;-70
2022/08/04 07:11:05;;;;;;;10.90;4.78;;;26.40;99.90;;;;;;5041397;28;20526;-70
2022/08/04 07:13:31;;;;;;;9.77;4.43;;;26.50;99.90;;;;;;5044681;28;20112;-70
2022/08/04 07:15:58;;;;;;;11.55;4.70;;;26.50;99.90;;;;;;5042580;28;20503;-70
2022/08/04 07:18:23;;;;;;;11.15;4.68;;;26.60;99.90;;;;;;5034223;28;20510;-70
2022/08/04 07:20:50;;;;;;;7.95;4.38;;;26.70;99.90;;;;;;5045023;28;20045;-70
2022/08/04 07:23:21;;;;;;;11.00;5.20;;;26.80;99.90;;;;;;5045508;28;20064;-71
2022/08/04 07:25:52;;;;;;;11.10;4.97;;;26.80;99.90;;;;;;5047537;28;20049;-70
2022/08/04 07:28:20;;;;;;;11.02;4.88;;;26.80;99.90;;;;;;5046850;28;20084;-71
2022/08/04 07:30:47;;;;;;;8.90;4.53;;;26.80;99.90;;;;;;5046305;28;20475;-70
2022/08/04 07:33:14;;;;;;;9.63;4.55;;;26.80;99.90;;;;;;5047413;28;20037;-70
2022/08/04 07:35:40;;;;;;;9.38;4.00;;;26.80;99.90;;;;;;5045013;28;20041;-70
2022/08/04 07:38:06;;;;;;;11.73;4.18;;;26.90;99.90;;;;;;5044246;28;20052;-71
2022/08/04 07:40:32;;;;;;;9.38;4.13;;;26.90;99.90;;;;;;5045867;28;20077;-72
2022/08/04 07:42:58;;;;;;;9.15;4.07;;;27.10;99.90;;;;;;5046884;28;20041;-70
2022/08/04 07:45:24;;;;;;;9.73;4.07;;;27.20;99.90;;;;;;5047186;28;20472;-71
2022/08/04 07:47:50;;;;;;;8.32;3.70;;;27.30;99.90;;;;;;5037908;28;20116;-71
2022/08/04 07:50:16;;;;;;;9.63;3.78;;;27.40;99.90;;;;;;5035580;28;20058;-70
2022/08/04 07:52:43;;;;;;;9.82;3.72;;;27.40;99.90;;;;;;5047092;28;20541;-71
2022/08/04 07:55:10;;;;;;;11.20;4.32;;;27.60;99.90;;;;;;5046098;28;20045;-70
2022/08/04 07:57:35;;;;;;;8.85;4.40;;;27.60;99.90;;;;;;5044262;28;20152;-70
2022/08/04 08:00:03;;;;;;;10.73;4.40;;;27.70;99.90;;;;;;5046020;28;20143;-71
2022/08/04 08:02:29;;;;;;;9.90;4.07;;;27.90;99.90;;;;;;5045915;28;20112;-70
2022/08/04 08:04:55;;;;;;;10.57;4.07;;;27.90;99.90;;;;;;5037931;28;20353;-69
2022/08/04 08:07:20;;;;;;;11.27;4.50;;;28.00;99.90;;;;;;5039919;28;20468;-70
2022/08/04 08:09:46;;;;;;;9.25;4.38;;;28.00;99.90;;;;;;5035565;28;20055;-71
2022/08/04 08:12:12;;;;;;;9.10;4.38;;;28.00;99.90;;;;;;5046109;28;20488;-70
2022/08/04 08:14:39;;;;;;;11.35;4.50;;;28.10;99.90;;;;;;5047603;28;20071;-70
2022/08/04 08:17:04;;;;;;;10.23;4.38;;;28.20;99.90;;;;;;5042239;28;20132;-70
2022/08/04 08:19:31;;;;;;;10.23;4.60;;;28.20;99.90;;;;;;5035805;28;20449;-70
2022/08/04 08:21:58;;;;;;;9.40;4.38;;;28.20;99.90;;;;;;5028688;28;20049;-70
2022/08/04 08:24:23;;;;;;;12.95;4.43;;;28.20;99.60;;;;;;5027385;28;20194;-70
2022/08/04 08:26:49;;;;;;;9.98;4.53;;;28.30;99.20;;;;;;5030807;28;20121;-70
2022/08/04 08:29:15;;;;;;;7.97;4.40;;;28.40;99.40;;;;;;5026964;28;20037;-70
2022/08/04 08:31:42;;;;;;;10.18;4.65;;;28.40;99.40;;;;;;5026498;28;20047;-71
2022/08/04 08:34:11;;;;;;;10.27;4.90;;;28.50;99.40;;;;;;5025385;28;20049;-70
2022/08/04 08:36:47;;;;;;;9.85;4.40;;;28.30;99.30;;;;;;5027297;28;20127;-70
2022/08/04 08:39:31;;;;;;;9.43;4.47;;;28.30;99.20;;;;;;5030063;28;20463;-70
2022/08/04 08:42:30;;;;;;;9.60;4.38;;;28.20;99.50;;;;;;5032798;28;20037;-70
2022/08/04 08:45:15;;;;;;;10.10;4.63;;;28.10;99.90;;;;;;5012896;28;20057;-70
2022/08/04 08:48:21;;;;;;;8.57;4.85;;;28.10;99.90;;;;;;5027460;28;20389;-70
2022/08/04 08:51:08;;;;;;;10.68;4.25;;;28.20;99.90;;;;;;5033283;28;20302;-70
2022/08/04 08:53:49;;;;;;;8.02;5.03;;;28.30;99.80;;;;;;5038740;28;20044;-70
2022/08/04 08:56:41;;;;;;;9.70;4.97;;;28.30;99.40;;;;;;5027749;28;20072;-70
2022/08/04 08:59:19;;;;;;;7.82;4.53;;;28.30;99.00;;;;;;5024994;28;20073;-69
2022/08/04 09:02:18;;;;;;;8.82;4.25;;;28.40;99.10;;;;;;5026745;28;20516;-70
2022/08/04 09:05:23;;;;;;;8.32;4.70;;;28.40;99.50;;;;;;5030076;28;20148;-71
2022/08/04 09:08:04;;;;;;;;;;;28.50;99.20;;;;;;5043205;28;20060;-70
2022/08/04 09:10:47;;;;;;;9.48;5.13;;;28.30;99.40;;;;;;5038068;28;20019;-70
2022/08/04 09:13:33;;;;;;;10.55;5.60;;;28.30;99.00;;;;;;5048956;28;20812;-72
2022/08/04 09:16:07;;;;;;;10.23;4.53;;;28.40;98.80;;;;;;5041378;28;20037;-71
2022/08/04 09:18:54;;;;;;;8.30;4.88;;;28.40;99.30;;;;;;5049106;28;20115;-71
2022/08/04 09:21:36;;;;;;;10.57;4.28;;;28.30;98.90;;;;;;5036927;28;20160;-72
2022/08/04 09:24:14;;;;;;;9.35;3.90;;;28.20;98.80;;;;;;5045357;28;20567;-71
2022/08/04 09:26:48;;;;;;;8.15;3.53;;;28.10;98.70;;;;;;5046169;28;20073;-71
2022/08/04 09:29:39;;;;;;;7.35;3.40;;;28.10;98.30;;;;;;5046982;28;20049;-71
2022/08/04 09:32:20;;;;;;;6.20;3.00;;;28.10;98.30;;;;;;5038050;28;20092;-71
2022/08/04 09:35:02;;;;;;;11.43;3.90;;;28.20;98.20;;;;;;5038906;28;20049;-70
2022/08/04 09:37:58;;;;;;;8.57;2.80;;;28.20;97.70;;;;;;5036543;28;20113;-71
2022/08/04 09:40:36;;;;;;;7.13;2.75;;;28.20;97.40;;;;;;5039030;28;20067;-70
2022/08/04 09:43:19;;;;;;;7.65;2.75;;;28.20;97.40;;;;;;5045834;28;20045;-70
2022/08/04 09:46:05;;;;;;;6.30;2.80;;;28.20;97.20;;;;;;5040585;28;20155;-70
2022/08/04 09:49:22;;;;;;;8.77;3.05;;;28.10;97.00;;;;;;5035074;28;20033;-70
2022/08/04 09:52:05;;;;;;;7.78;2.70;;;28.00;97.40;;;;;;5017356;28;20049;-69
2022/08/04 09:54:58;;;;;;;6.00;2.30;;;27.90;97.90;;;;;;5039036;28;20049;-70
2022/08/04 09:57:30;;;;;;;6.43;2.10;;;27.90;97.50;;;;;;5032007;28;20749;-68
2022/08/04 10:00:05;;;;;;;5.45;1.80;;;28.10;97.80;;;;;;5032982;28;20127;-70
2022/08/04 10:02:37;;;;;;;5.55;1.60;;;28.20;97.00;;;;;;5046768;28;20136;-70
2022/08/04 10:05:07;;;;;;;5.22;1.65;;;28.10;96.50;;;;;;5043186;28;20056;-69
2022/08/04 10:08:09;;;;;;;7.07;2.08;;;28.20;96.60;;;;;;5032581;28;20448;-70
2022/08/04 10:10:58;;;;;;;9.18;1.85;;;28.30;96.10;;;;;;5043739;28;20745;-69
2022/08/04 10:13:41;;;;;;;6.05;1.90;;;28.40;95.90;;;;;;5045365;28;20495;-70
2022/08/04 10:16:34;;;;;;;8.40;2.00;;;28.70;95.60;;;;;;5045620;28;20076;-70
2022/08/04 10:19:24;;;;;;;7.28;2.25;;;28.80;94.90;;;;;;5041877;28;20065;-70
2022/08/04 10:22:25;;;;;;;8.50;2.00;;;28.90;95.10;;;;;;5043239;28;20052;-70
2022/08/04 10:25:25;;;;;;;8.70;2.40;;;29.10;94.80;;;;;;5040080;28;20045;-70
2022/08/04 10:27:56;;;;;;;9.30;2.20;;;29.30;94.20;;;;;;5036224;28;20385;-70
2022/08/04 10:30:22;;;;;;;7.97;2.30;;;29.40;94.40;;;;;;5049028;28;20128;-70
2022/08/04 10:33:11;;;;;;;8.70;2.00;;;29.50;94.20;;;;;;5037999;28;20055;-71
2022/08/04 10:36:05;;;;;;;6.57;2.03;;;29.70;94.10;;;;;;5040433;28;20120;-72
2022/08/04 10:38:36;;;;;;;8.05;2.50;;;29.60;93.80;;;;;;5041069;28;20049;-71
2022/08/04 10:41:17;;;;;;;9.00;2.50;;;29.60;93.90;;;;;;5048724;28;20037;-73
2022/08/04 10:44:10;;;;;;;5.95;2.13;;;29.60;94.10;;;;;;5038282;28;20047;-72
2022/08/04 10:46:45;;;;;;;6.05;2.42;;;29.50;94.90;;;;;;5034675;28;20054;-72
2022/08/04 10:49:36;;;;;;;5.95;2.08;;;29.40;95.10;;;;;;5033939;28;20052;-72
2022/08/04 10:52:28;;;;;;;5.25;1.83;;;29.30;94.40;;;;;;5036307;28;20056;-72
2022/08/04 10:55:07;;;;;;;6.13;1.70;;;29.20;94.10;;;;;;5046178;28;20052;-74
2022/08/04 10:58:04;;;;;;;5.22;1.73;;;29.20;94.50;;;;;;5045414;28;20035;-72
2022/08/04 11:00:32;;;;;;;4.35;1.70;;;29.30;93.50;;;;;;5019447;28;20304;-71
2022/08/04 11:03:05;;;;;;;4.88;1.80;;;29.20;93.80;;;;;;5040303;28;20037;-71
2022/08/04 11:05:51;;;;;;;5.00;1.67;;;29.30;93.80;;;;;;5046357;28;20055;-71
2022/08/04 11:08:26;;;;;;;5.50;1.88;;;29.20;93.60;;;;;;5045262;28;20049;-71
2022/08/04 11:11:00;;;;;;;4.93;1.50;;;29.00;93.70;;;;;;5047798;28;20470;-71
2022/08/04 11:13:33;;;;;;;3.80;1.60;;;29.10;93.50;;;;;;5044150;28;20060;-73
2022/08/04 11:16:04;;;;;;;3.55;1.40;;;29.10;93.70;;;;;;5039012;28;20049;-73
2022/08/04 11:18:46;;;;;;;4.38;1.27;;;29.20;93.10;;;;;;5031414;28;20048;-72
2022/08/04 11:21:18;;;;;;;2.45;1.10;;;29.10;92.40;;;;;;5041785;28;20044;-72
2022/08/04 11:23:54;;;;;;;5.38;1.30;;;29.10;91.80;;;;;;5040757;28;20040;-73
2022/08/04 11:26:44;;;;;;;2.33;1.17;;;29.00;91.60;;;;;;5040385;28;20045;-73
2022/08/04 11:29:22;;;;;;;3.78;1.45;;;29.00;91.20;;;;;;5038874;28;20369;-71
2022/08/04 11:31:48;;;;;;;3.72;1.40;;;28.80;90.60;;;;;;5045226;28;20073;-70
2022/08/04 11:34:21;;;;;;;3.47;1.50;;;28.80;91.10;;;;;;5034479;28;20060;-73
2022/08/04 11:37:13;;;;;;;3.13;1.38;;;28.60;91.00;;;;;;5038503;28;20061;-73
2022/08/04 11:39:52;;;;;;;4.13;1.30;;;28.70;91.00;;;;;;5035807;28;20065;-72
2022/08/04 11:42:21;;;;;;;3.47;1.10;;;28.60;90.90;;;;;;5036829;28;20155;-72
2022/08/04 11:44:50;;;;;;;5.03;1.40;;;28.40;90.80;;;;;;5044784;28;20052;-73
2022/08/04 11:47:38;;;;;;;3.97;1.20;;;28.30;90.90;;;;;;5028925;28;20045;-72
2022/08/04 11:50:27;;;;;;;3.08;1.20;;;28.10;90.60;;;;;;5038274;28;20067;-72
2022/08/04 11:52:56;;;;;;;2.13;1.10;;;28.00;90.40;;;;;;5035940;28;20083;-72
2022/08/04 11:55:25;;;;;;;2.33;1.00;;;27.90;90.70;;;;;;5042959;28;20064;-73
2022/08/04 11:57:51;;;;;;;4.15;1.00;;;27.70;90.50;;;;;;5037460;28;20135;-72
2022/08/04 12:00:18;;;;;;;2.13;1.02;;;27.50;91.00;;;;;;5035422;28;20040;-72
2022/08/04 12:03:05;;;;;;;2.83;1.00;;;27.40;90.90;;;;;;5048357;28;20033;-72
2022/08/04 12:05:40;;;;;;;2.83;1.17;;;27.30;91.00;;;;;;5034229;28;20091;-72
2022/08/04 12:08:43;;;;;;;3.40;1.10;;;27.20;91.30;;;;;;5031417;28;20061;-73
2022/08/04 12:11:21;;;;;;;3.38;1.13;;;26.90;91.50;;;;;;5034842;28;20053;-72
2022/08/04 12:14:00;;;;;;;2.65;1.13;;;26.80;91.60;;;;;;5034006;28;20046;-71
2022/08/04 12:16:40;;;;;;;4.13;1.30;;;26.80;91.80;;;;;;5046064;28;20041;-71
2022/08/04 12:19:49;;;;;;;2.72;1.10;;;26.80;92.00;;;;;;5045176;28;20641;-71
2022/08/04 12:22:19;;;;;;;3.08;1.10;;;26.90;91.90;;;;;;5033402;28;20250;-72
2022/08/04 12:25:01;;;;;;;2.35;1.15;;;27.10;91.90;;;;;;5043039;28;20036;-71
2022/08/04 12:27:32;;;;;;;2.33;1.10;;;27.30;91.40;;;;;;5045118;28;20042;-71
2022/08/04 12:29:58;;;;;;;3.65;1.30;;;27.60;90.90;;;;;;5037885;28;20103;-71
2022/08/04 12:32:54;;;;;;;3.05;1.05;;;27.70;90.30;;;;;;5029839;28;21665;-70
2022/08/04 12:35:30;;;;;;;2.60;0.95;;;27.80;89.50;;;;;;5041973;28;20091;-71
2022/08/04 12:38:06;;;;;;;3.05;1.00;;;27.90;89.00;;;;;;5037372;28;20106;-70
2022/08/04 12:40:50;;;;;;;3.58;1.20;;;28.20;88.40;;;;;;5050227;28;20131;-71
2022/08/04 12:43:21;;;;;;;2.75;1.10;;;28.30;87.10;;;;;;5050157;28;20138;-71
2022/08/04 12:45:53;;;;;;;3.10;1.20;;;28.40;85.70;;;;;;5049814;28;20041;-71
2022/08/04 12:48:21;;;;;;;3.95;1.10;;;28.40;85.20;;;;;;5035986;28;21371;-71
2022/08/04 12:50:50;;;;;;;3.40;1.20;;;28.40;85.50;;;;;;5047193;28;20049;-71
2022/08/04 12:53:17;;;;;;;2.85;1.00;;;28.50;85.30;;;;;;5051431;28;20112;-70
2022/08/04 12:55:50;;;;;;;2.42;1.20;;;28.60;84.90;;;;;;5049548;28;20048;-70
2022/08/04 12:58:19;;;;;;;2.25;1.00;;;28.90;83.20;;;;;;5035153;28;20086;-70
2022/08/04 13:01:02;;;;;;;3.72;1.15;;;29.10;83.50;;;;;;5036253;28;20057;-71
2022/08/04 13:03:35;;;;;;;2.50;1.13;;;29.20;84.00;;;;;;5043166;28;20215;-70
2022/08/04 13:06:01;;;;;;;2.30;1.13;;;29.40;83.00;;;;;;5037508;28;20068;-70
2022/08/04 13:08:27;;;;;;;2.65;1.10;;;29.50;82.10;;;;;;5040158;28;20389;-70
2022/08/04 13:10:57;;;;;;;3.15;1.00;;;29.50;81.20;;;;;;5048324;28;20474;-71
2022/08/04 13:13:27;;;;;;;5.05;1.33;;;29.40;81.20;;;;;;5050120;28;20487;-71
2022/08/04 13:16:05;;;;;;;3.30;1.10;;;29.30;80.80;;;;;;5044015;28;20068;-72
2022/08/04 13:18:35;;;;;;;3.50;1.20;;;29.30;81.80;;;;;;5047204;28;20102;-71
2022/08/04 13:21:21;;;;;;;2.17;1.10;;;29.40;80.80;;;;;;5031598;28;20048;-75
2022/08/04 13:23:52;;;;;;;2.97;1.15;;;29.30;81.10;;;;;;5050304;28;20067;-71
2022/08/04 13:26:18;;;;;;;3.17;1.33;;;29.30;81.10;;;;;;5042677;28;20057;-70
2022/08/04 13:28:47;;;;;;;2.65;1.10;;;29.20;81.20;;;;;;5032940;28;20037;-70
2022/08/04 13:31:16;;;;;;;3.50;1.45;;;29.00;81.60;;;;;;5051924;28;20437;-71
2022/08/04 13:33:50;;;;;;;2.67;1.20;;;29.00;81.30;;;;;;5033485;28;20046;-70